Waimea, HI (96796)

8:18 AM HST on May 25, 2015 (GMT -1000)
Waimea, Hi 96796 | | Change Station
CLOSE
Current Station
Personal Weather Station
Location: Waimea, HI
Elevation: 60 ft
Nearby Weather Stations

Elev 60 ft 21.95 °N, 159.67 °W | Updated 18 seconds ago

Overcast
Overcast
73.7 °F
Feels Like 76 °F
N
1.0
Wind Variable Wind from East
Gusts 9.0 mph

Today
High -- | Low -- °F
--% Chance of Precip.
Yesterday
High -- | Low -- °F
Precip. -- in
5:56 AM 7:15 PM
Waxing Crescent, 50% visible
Pressure 30.03 in
Visibility 10.0 miles
Clouds Overcast 5500 ft
Heat Index 76 °F
Dew Point 62 °F
Humidity 66%
Rainfall 0.00 in
Snow Depth Not available.
UV 1 out of 12
Pollen Not available.
Air Quality Not available.
Flu Activity Local Activity
METAR PHLI 251753Z 32005KT 10SM OVC055 21/17 A3003 RMK AO2 SLP167 60000 T02100167 10211 20189 53007 $

More Conditions Fewer Conditions

Pressure 30.03 in
Visibility 10.0 miles
Clouds Overcast 5500 ft
Heat Index 76 °F
Dew Point 62 °F
Humidity 66%
Rainfall 0.00 in
Snow Depth Not available.
UV 1 out of 12
Pollen Not available.
Air Quality Not available.
Flu Activity Local Activity
METAR PHLI 251753Z 32005KT 10SM OVC055 21/17 A3003 RMK AO2 SLP167 60000 T02100167 10211 20189 53007 $

More Conditions Fewer Conditions

10-Day Weather Forecast

Almanac

Astronomy

May. 25, 2015 Rise Set
Actual Time
Civil Twilight
Nautical Twilight
Astronomical Twilight
Moon
Length of Visible Light
Length of Day
Tomorrow will be .
, % of the Moon is Illuminated

Today's Extremes

State Highs State Lows

Community

WunderPhotos

Upload Photos

1,824,077 photos uploaded!

WunderBlogs® & News

Nearby

Air Quality

  Air Quality AQ Index Pollutant
Not available.

Snow Depth

Station Depth Elevation

Earthquake Activity

City Distance Mag. Time & Date
Minimum magnitude displayed is 2.5.

Coastal Water Temperatures

Place Temperature

Stations

Nearby Weather Stations

Station Location Temp. Windchill Dew Point Humidity Wind Precip. Elev Updated Type